Time;durP1;ratioP1;P1;durP2;ratioP2;P2;SDS_P1;SDS_P2;PMS_P1;PMS_P2;Temp;Humidity;BMP_temperature;BMP_pressure;BME280_temperature;BME280_humidity;BME280_pressure;Samples;Min_cycle;Max_cycle;Signal;HPM_P1;HPM_P2
2023/09/28 17:11:39;;;;;;;;;27.13;23.88;;;;;19.88;82.34;100095.72;6278891;20;3595050;-55
2023/09/28 17:14:08;;;;;;;;;21.00;21.00;;;;;19.90;81.63;100105.47;6299876;20;3581508;-55
2023/09/28 17:16:38;;;;;;;;;27.00;23.00;;;;;19.62;83.20;100106.31;6292854;20;3579542;-54
2023/09/28 17:19:08;;;;;;;;;31.50;25.50;;;;;19.41;83.51;100099.13;6330673;20;3621604;-53
2023/09/28 17:21:39;;;;;;;;;51.50;39.50;;;;;19.39;83.90;100106.56;6328816;20;4377724;-57
2023/09/28 17:24:09;;;;;;;;;194.67;168.67;;;;;19.06;84.77;100105.03;6320205;20;3701385;-54
2023/09/28 17:26:38;;;;;;;;;67.50;50.50;;;;;19.18;85.43;100113.97;6293711;20;4374212;-53
2023/09/28 17:29:07;;;;;;;;;45.67;34.67;;;;;18.92;87.03;100108.16;6332185;20;3614804;-57
2023/09/28 17:31:36;;;;;;;;;29.00;25.67;;;;;18.95;86.68;100116.91;6299238;20;3554505;-55
2023/09/28 17:34:06;;;;;;;;;36.75;31.50;;;;;19.08;85.60;100117.50;6332935;20;3608643;-54
2023/09/28 17:36:36;;;;;;;;;28.50;26.50;;;;;18.92;85.23;100119.03;6327156;20;3604509;-54
2023/09/28 17:39:06;;;;;;;;;40.67;34.67;;;;;18.89;85.93;100116.59;6331461;20;3603562;-54
2023/09/28 17:41:36;;;;;;;;;55.50;38.00;;;;;19.04;85.41;100126.97;6303164;20;3629548;-51
2023/09/28 17:44:05;;;;;;;;;46.33;36.67;;;;;18.47;87.73;100120.22;6340068;20;3595076;-54
2023/09/28 17:46:35;;;;;;;;;38.25;28.00;;;;;18.61;87.08;100119.88;6303093;20;4367051;-55
2023/09/28 17:49:04;;;;;;;;;32.67;29.33;;;;;18.42;88.32;100112.47;6338667;20;3596143;-49
2023/09/28 17:51:34;;;;;;;;;29.00;26.33;;;;;18.18;88.84;100120.91;6307631;20;3591951;-50
2023/09/28 17:54:03;;;;;;;;;25.67;22.00;;;;;18.30;88.23;100118.13;6307463;20;3578459;-53
2023/09/28 17:56:33;;;;;;;;;28.00;24.00;;;;;18.42;88.44;100117.06;6309375;20;3600232;-52
2023/09/28 17:59:02;;;;;;;;;26.33;21.00;;;;;18.49;87.26;100118.25;6305922;20;3590875;-54
2023/09/28 18:01:31;;;;;;;;;28.33;26.00;;;;;18.04;88.44;100107.66;6308887;20;3604453;-55
2023/09/28 18:04:00;;;;;;;;;27.67;22.33;;;;;17.99;87.65;100123.50;6305099;20;3583697;-54
2023/09/28 18:06:30;;;;;;;;;30.75;25.25;;;;;17.64;91.52;100121.91;6307478;20;3606524;-54
2023/09/28 18:09:04;;;;;;;;;28.67;25.00;;;;;18.00;89.69;100122.50;6338538;20;3596122;-54
2023/09/28 18:11:33;;;;;;;;;22.67;20.67;;;;;18.00;88.39;100122.50;6304330;20;3570175;-57
2023/09/28 18:14:04;;;;;;;;;58.00;44.00;;;;;18.05;88.98;100127.53;6306026;20;4379389;-50
2023/09/28 18:16:36;;;;;;;;;48.33;37.67;;;;;17.28;90.24;100129.38;6336218;20;3610706;-52
2023/09/28 18:19:06;;;;;;;;;28.67;28.00;;;;;17.66;89.41;100136.19;6302017;20;3599729;-53
2023/09/28 18:21:36;;;;;;;;;41.00;31.25;;;;;17.64;88.50;100124.59;6327115;20;4371551;-54
2023/09/28 18:24:08;;;;;;;;;31.00;28.33;;;;;17.58;89.34;100126.97;6314590;20;3606539;-55
2023/09/28 18:26:37;;;;;;;;;24.00;21.75;;;;;16.78;91.97;100134.38;6283544;20;3591964;-55
2023/09/28 18:29:07;;;;;;;;;34.33;30.00;;;;;17.16;92.91;100138.53;6316546;20;3610746;-55
2023/09/28 18:31:36;;;;;;;;;26.33;20.00;;;;;17.41;89.22;100131.09;6284756;20;3589244;-55
2023/09/28 18:34:05;;;;;;;;;19.00;19.00;;;;;17.05;91.11;100142.13;6281120;20;3575393;-53
2023/09/28 18:36:34;;;;;;;;;23.50;20.50;;;;;17.41;89.19;100144.66;6277865;20;2841931;-53
2023/09/28 18:39:08;;;;;;;;;31.33;23.33;;;;;17.51;86.97;100141.06;6283353;20;3594490;-53
2023/09/28 18:41:49;;;;;;;;;24.33;23.33;;;;;17.27;88.77;100141.25;6311484;20;2848226;-55
2023/09/28 18:44:18;;;;;;;;;25.00;22.00;;;;;17.19;89.35;100142.84;6312791;20;3591953;-55
2023/09/28 18:46:50;;;;;;;;;26.67;22.33;;;;;17.50;88.63;100147.47;6285160;20;3593141;-53
2023/09/28 18:49:22;;;;;;;;;26.00;21.00;;;;;17.24;89.27;100146.91;6282184;20;2845087;-51
2023/09/28 18:51:51;;;;;;;;;23.50;22.00;;;;;17.33;87.63;100143.44;6309247;20;2836746;-52
2023/09/28 18:54:22;;;;;;;;;26.00;19.00;;;;;17.27;87.46;100146.69;6280573;20;2846133;-53
2023/09/28 18:56:50;;;;;;;;;21.67;19.33;;;;;17.26;88.26;100152.22;6285239;20;3562741;-53
2023/09/28 18:59:24;;;;;;;;;21.00;21.00;;;;;16.53;90.79;100161.66;6279462;20;2840911;-54
2023/09/28 19:01:53;;;;;;;;;30.00;28.33;;;;;16.50;90.76;100151.94;6275997;20;3596836;-52
2023/09/28 19:04:23;;;;;;;;;25.67;23.33;;;;;16.88;90.96;100148.94;6282296;20;3588938;-55
2023/09/28 19:06:58;;;;;;;;;21.50;20.00;;;;;16.82;89.97;100160.25;6280231;20;2837783;-54
2023/09/28 19:09:27;;;;;;;;;26.33;23.33;;;;;16.51;92.80;100158.22;6277185;20;3595462;-54
2023/09/28 19:11:56;;;;;;;;;25.33;22.00;;;;;16.69;91.75;100159.47;6281868;20;3569052;-56
2023/09/28 19:14:37;;;;;;;;;32.67;23.33;;;;;16.50;92.46;100156.50;6281229;20;3607554;-56
2023/09/28 19:17:07;;;;;;;;;35.67;28.67;;;;;16.36;93.66;100158.44;6309565;20;3612877;-55
2023/09/28 19:19:35;;;;;;;;;29.33;25.33;;;;;16.43;91.58;100157.00;6278044;20;3606571;-55
2023/09/28 19:22:04;;;;;;;;;26.33;20.33;;;;;16.70;90.27;100163.91;6284137;20;3588800;-54
2023/09/28 19:24:34;;;;;;;;;22.00;20.67;;;;;16.84;89.16;100169.13;6283465;20;3573246;-54
2023/09/28 19:27:08;;;;;;;;;24.67;23.67;;;;;16.36;89.85;100166.56;6278724;20;3585682;-55
2023/09/28 19:29:38;;;;;;;;;29.33;25.67;;;;;16.34;89.78;100167.69;6283146;20;3596091;-56
2023/09/28 19:32:08;;;;;;;;;26.67;20.33;;;;;16.36;89.24;100169.28;6281186;20;3590904;-53
2023/09/28 19:34:38;;;;;;;;;23.50;21.00;;;;;16.61;88.00;100170.94;6277276;20;2830539;-55
2023/09/28 19:37:07;;;;;;;;;27.00;22.00;;;;;16.56;87.45;100167.72;6282466;20;3574297;-54
2023/09/28 19:39:36;;;;;;;;;26.33;21.00;;;;;16.07;90.88;100173.38;6274410;20;2836842;-52
2023/09/28 19:42:05;;;;;;;;;28.67;26.33;;;;;15.96;90.98;100174.22;6315952;20;3604455;-54
2023/09/28 19:44:36;;;;;;;;;26.00;20.50;;;;;15.86;91.99;100171.34;6276321;20;2839418;-55
2023/09/28 19:47:07;;;;;;;;;25.33;24.33;;;;;15.61;92.81;100168.69;6278401;20;3592989;-52
2023/09/28 19:49:36;;;;;;;;;23.67;21.33;;;;;15.82;93.34;100171.69;6279103;20;3583636;-54
2023/09/28 19:52:07;;;;;;;;;28.67;22.67;;;;;15.82;93.59;100168.97;6275663;20;3584673;-53
2023/09/28 19:54:36;;;;;;;;;24.00;20.00;;;;;15.58;94.30;100165.25;6273911;20;2833612;-51
2023/09/28 19:57:06;;;;;;;;;27.67;23.67;;;;;15.63;94.02;100166.75;6277763;20;3586737;-54
2023/09/28 19:59:39;;;;;;;;;22.00;20.67;;;;;16.11;92.72;100169.44;6306925;20;2842982;-54
2023/09/28 20:02:08;;;;;;;;;27.00;22.00;;;;;15.80;93.18;100166.41;6310078;20;3584678;-54
2023/09/28 20:04:37;;;;;;;;;19.00;18.00;;;;;16.28;91.84;100177.16;6279613;20;2834672;-52
2023/09/28 20:07:05;;;;;;;;;25.00;21.50;;;;;15.62;93.42;100170.44;6279847;20;2845152;-54
2023/09/28 20:09:34;;;;;;;;;24.50;20.50;;;;;16.00;92.90;100165.72;6278482;20;2828412;-52
2023/09/28 20:12:07;;;;;;;;;20.67;19.67;;;;;15.77;94.75;100169.31;6280112;20;2842995;-54
2023/09/28 20:14:37;;;;;;;;;28.00;24.00;;;;;15.67;94.46;100163.72;6308275;20;2843124;-55
2023/09/28 20:17:06;;;;;;;;;24.00;19.00;;;;;15.92;94.07;100167.28;6310424;20;3574299;-54
2023/09/28 20:19:36;;;;;;;;;24.67;21.00;;;;;15.82;93.73;100177.94;6277171;20;3586780;-53
2023/09/28 20:22:05;;;;;;;;;25.67;23.67;;;;;15.55;93.24;100170.88;6314304;20;3591946;-53
2023/09/28 20:24:33;;;;;;;;;27.00;25.67;;;;;15.08;95.00;100180.66;6282650;20;3590012;-52
2023/09/28 20:27:02;;;;;;;;;30.67;24.00;;;;;14.90;96.81;100176.56;6279036;20;3602420;-53
2023/09/28 20:29:31;;;;;;;;;23.00;21.50;;;;;15.47;95.71;100177.84;6279468;20;2837841;-55
2023/09/28 20:32:00;;;;;;;;;25.00;23.00;;;;;14.97;96.74;100175.16;6279669;20;3578395;-54
2023/09/28 20:34:29;;;;;;;;;25.67;21.67;;;;;15.11;96.11;100172.34;6280339;20;3577467;-51
2023/09/28 20:36:58;;;;;;;;;25.67;22.67;;;;;15.09;96.86;100170.72;6276862;20;3566045;-53
2023/09/28 20:39:26;;;;;;;;;19.67;19.00;;;;;15.17;96.74;100179.16;6279941;20;3566022;-55
2023/09/28 20:41:55;;;;;;;;;27.67;25.33;;;;;15.31;96.42;100183.53;6278198;20;3577473;-52
2023/09/28 20:44:24;;;;;;;;;26.33;21.67;;;;;15.11;96.25;100177.75;6275422;20;3571193;-52
2023/09/28 20:46:53;;;;;;;;;24.00;21.00;;;;;15.05;96.21;100172.75;6275217;20;3583571;-52
2023/09/28 20:49:21;;;;;;;;;23.00;22.00;;;;;14.99;95.73;100172.38;6278573;20;2827370;-54
2023/09/28 20:51:50;;;;;;;;;17.00;15.00;;;;;15.03;96.81;100169.31;6274872;20;3541309;-53
2023/09/28 20:54:20;;;;;;;;;35.00;27.00;;;;;14.97;95.38;100172.47;6276259;20;3609746;-52
2023/09/28 20:56:49;;;;;;;;;26.00;23.00;;;;;14.87;96.08;100169.53;6278245;20;3583610;-54
2023/09/28 20:59:19;;;;;;;;;27.00;27.00;;;;;15.04;95.14;100173.75;6277078;20;3594206;-53
2023/09/28 21:01:48;;;;;;;;;40.00;31.00;;;;;14.76;95.87;100182.13;6311376;20;3622201;-54
2023/09/28 21:04:17;;;;;;;;;35.33;31.00;;;;;15.07;95.73;100181.63;6282501;20;3590910;-55
2023/09/28 21:06:45;;;;;;;;;31.00;24.00;;;;;14.80;95.07;100184.50;6279845;20;3607567;-53
2023/09/28 21:09:16;;;;;;;;;30.00;28.00;;;;;14.67;96.74;100179.09;6280404;20;3608787;-54
2023/09/28 21:11:48;;;;;;;;;24.33;20.00;;;;;14.99;96.04;100178.63;6276863;20;3574217;-53
2023/09/28 21:14:17;;;;;;;;;28.50;22.50;;;;;14.65;96.75;100181.03;6278110;20;2848219;-50
2023/09/28 21:16:46;;;;;;;;;19.00;17.50;;;;;15.09;94.60;100182.41;6275916;20;2825424;-54
2023/09/28 21:19:15;;;;;;;;;32.00;26.67;;;;;14.76;95.78;100177.56;6281318;20;3616921;-52
2023/09/28 21:21:44;;;;;;;;;26.00;23.00;;;;;14.53;96.22;100181.03;6281946;20;3579420;-54
2023/09/28 21:24:13;;;;;;;;;27.67;24.33;;;;;14.97;94.83;100183.28;6277375;20;3594053;-54
2023/09/28 21:26:44;;;;;;;;;30.67;25.67;;;;;14.93;94.59;100184.50;6307487;20;3595106;-54
2023/09/28 21:29:13;;;;;;;;;22.00;21.00;;;;;14.68;96.00;100186.22;6311103;20;3573954;-55
2023/09/28 21:31:41;;;;;;;;;29.00;24.33;;;;;14.36;96.85;100180.34;6282096;20;3596113;-54
2023/09/28 21:34:11;;;;;;;;;30.00;24.33;;;;;15.00;95.60;100185.75;6276581;20;3612831;-52
2023/09/28 21:36:41;;;;;;;;;34.00;29.67;;;;;14.49;96.33;100180.34;6310274;20;3609651;-52
2023/09/28 21:39:09;;;;;;;;;41.00;33.33;;;;;14.31;98.01;100187.03;6280142;20;3612778;-53
2023/09/28 21:41:38;;;;;;;;;37.00;33.00;;;;;14.34;97.86;100170.59;6281596;20;3595116;-54
2023/09/28 21:44:08;;;;;;;;;32.67;26.33;;;;;13.79;98.93;100186.91;6278866;20;3607631;-54
2023/09/28 21:46:37;;;;;;;;;25.67;22.67;;;;;14.53;96.31;100181.88;6310230;20;3587789;-53
2023/09/28 21:49:06;;;;;;;;;23.00;21.33;;;;;14.37;98.08;100184.75;6277542;20;2842076;-53
2023/09/28 21:51:35;;;;;;;;;22.00;22.00;;;;;14.56;96.42;100191.63;6309064;20;3570065;-52
2023/09/28 21:54:05;;;;;;;;;24.67;23.33;;;;;14.99;94.75;100194.00;6269745;20;2840990;-53
2023/09/28 21:56:34;;;;;;;;;29.00;24.00;;;;;14.98;94.05;100198.56;6305136;20;3587750;-52
2023/09/28 21:59:02;;;;;;;;;27.00;24.00;;;;;14.85;94.23;100186.84;6282482;20;2500296;-53
2023/09/28 22:01:31;;;;;;;;;25.50;22.50;;;;;14.21;96.98;100187.66;6279517;20;2845233;-53
2023/09/28 22:04:00;;;;;;;;;24.67;22.33;;;;;14.11;97.70;100191.94;6286465;20;3583712;-54
2023/09/28 22:06:29;;;;;;;;;34.00;32.00;;;;;14.76;94.82;100198.34;6280345;20;3608737;-54
2023/09/28 22:08:58;;;;;;;;;39.33;31.33;;;;;14.87;94.36;100185.75;6284167;20;3621239;-53
2023/09/28 22:11:28;;;;;;;;;33.50;28.00;;;;;14.05;97.41;100189.69;6279854;20;3613617;-53
2023/09/28 22:13:57;;;;;;;;;32.00;29.00;;;;;14.26;98.62;100193.59;6314977;20;3607573;-54
2023/09/28 22:16:26;;;;;;;;;33.33;28.67;;;;;14.01;97.88;100190.88;6282924;20;3616055;-54
2023/09/28 22:18:55;;;;;;;;;27.33;20.67;;;;;14.06;98.58;100194.13;6286815;20;3584627;-54
2023/09/28 22:21:24;;;;;;;;;23.00;21.00;;;;;14.02;98.79;100198.00;6282664;20;2846171;-54
2023/09/28 22:23:55;;;;;;;;;32.00;30.00;;;;;13.61;100.00;100198.91;6285997;20;3601406;-51
2023/09/28 22:26:24;;;;;;;;;43.00;32.33;;;;;13.75;100.00;100193.47;6283725;20;3622222;-54
2023/09/28 22:28:52;;;;;;;;;1.00;1.00;;;;;13.69;100.00;100191.19;6328726;20;2467038;-51
2023/09/28 22:31:22;;;;;;;;;27.33;23.67;;;;;13.59;100.00;100192.78;6281139;20;2862909;-51
2023/09/28 22:33:52;;;;;;;;;40.75;31.75;;;;;13.75;99.42;100195.31;6314578;20;3619140;-56
2023/09/28 22:36:20;;;;;;;;;24.67;22.33;;;;;14.03;98.37;100195.19;6316866;20;3572595;-52
2023/09/28 22:38:50;;;;;;;;;32.67;26.00;;;;;13.65;100.00;100195.06;6281532;20;3620163;-52
2023/09/28 22:41:19;;;;;;;;;33.33;26.67;;;;;13.41;100.00;100196.69;6314499;20;3612790;-53
2023/09/28 22:43:49;;;;;;;;;39.67;33.67;;;;;13.34;100.00;100190.81;6278224;20;2852165;-54
2023/09/28 22:46:19;;;;;;;;;41.50;31.00;;;;;13.39;100.00;100194.06;6309571;20;3624367;-53
2023/09/28 22:48:48;;;;;;;;;31.00;28.00;;;;;13.23;100.00;100194.16;6314408;20;3600223;-53
2023/09/28 22:51:17;;;;;;;;;29.33;26.33;;;;;13.60;100.00;100189.09;6283775;20;3595039;-52
2023/09/28 22:53:46;;;;;;;;;24.50;22.00;;;;;13.91;99.04;100204.13;6279367;20;2847296;-54
2023/09/28 22:56:16;;;;;;;;;32.67;27.67;;;;;13.40;99.91;100201.19;6278678;20;3607655;-55
2023/09/28 22:58:45;;;;;;;;;28.67;25.00;;;;;13.81;98.16;100201.16;6312601;20;3591295;-51
2023/09/28 23:01:14;;;;;;;;;37.33;27.33;;;;;13.94;97.29;100194.94;6281206;20;2878517;-54
2023/09/28 23:03:43;;;;;;;;;25.00;22.33;;;;;13.75;98.18;100198.88;6312412;20;3577807;-52
2023/09/28 23:06:11;;;;;;;;;78.00;63.00;;;;;13.56;99.06;100195.66;6272973;20;1931616;-51
2023/09/28 23:08:40;;;;;;;;;22.33;21.00;;;;;14.02;97.75;100203.38;6284040;20;3580586;-53
2023/09/28 23:11:15;;;;;;;;;28.00;23.00;;;;;13.82;97.62;100202.91;6274898;20;2853573;-53
2023/09/28 23:13:45;;;;;;;;;25.00;20.33;;;;;14.02;97.27;100208.78;6278516;20;2845225;-52
2023/09/28 23:16:14;;;;;;;;;24.33;24.33;;;;;13.95;97.08;100207.47;6312508;20;2839876;-54
2023/09/28 23:18:43;;;;;;;;;20.50;20.50;;;;;13.55;99.12;100204.72;6311606;20;2831537;-54
2023/09/28 23:21:12;;;;;;;;;35.67;30.33;;;;;13.01;100.00;100210.84;6279798;20;3608721;-49
2023/09/28 23:23:41;;;;;;;;;38.67;33.00;;;;;13.08;100.00;100216.72;6283756;20;3589895;-54
2023/09/28 23:26:11;;;;;;;;;25.00;24.33;;;;;12.87;100.00;100217.09;6278983;20;3587832;-48
2023/09/28 23:28:43;;;;;;;;;21.67;19.00;;;;;12.62;100.00;100219.59;6316697;20;3581547;-52
2023/09/28 23:31:11;;;;;;;;;28.33;24.00;;;;;13.37;100.00;100217.56;6283749;20;3594054;-54
2023/09/28 23:33:41;;;;;;;;;29.00;25.33;;;;;13.01;100.00;100216.25;6282576;20;3585930;-54
2023/09/28 23:36:11;;;;;;;;;29.33;24.67;;;;;13.10;100.00;100221.03;6313367;20;3586843;-53
2023/09/28 23:38:40;;;;;;;;;24.50;23.00;;;;;13.37;100.00;100215.72;6280952;20;2848262;-52
2023/09/28 23:41:11;;;;;;;;;21.67;20.33;;;;;13.56;100.00;100222.63;6282021;20;2841995;-54
2023/09/28 23:43:40;;;;;;;;;24.00;19.00;;;;;13.48;99.79;100219.56;6313437;20;3571238;-54
2023/09/28 23:46:09;;;;;;;;;24.00;18.67;;;;;13.43;100.00;100211.81;6312021;20;3585761;-52
2023/09/28 23:48:37;;;;;;;;;28.00;23.00;;;;;13.15;100.00;100218.91;6271292;20;2500242;-54
2023/09/28 23:51:07;;;;;;;;;27.00;23.00;;;;;13.56;99.64;100217.22;6281277;20;2837835;-53
2023/09/28 23:53:36;;;;;;;;;23.00;22.50;;;;;13.25;100.00;100215.66;6280278;20;2842037;-53
2023/09/28 23:56:05;;;;;;;;;30.00;23.50;;;;;13.35;100.00;100217.69;6278065;20;2855489;-54
2023/09/28 23:58:35;;;;;;;;;27.00;24.00;;;;;13.48;100.00;100224.97;6280139;20;2860790;-52
